Time;durP1;ratioP1;P1;durP2;ratioP2;P2;SDS_P1;SDS_P2;PMS_P1;PMS_P2;Temp;Humidity;BMP_temperature;BMP_pressure;BME280_temperature;BME280_humidity;BME280_pressure;Samples;Min_cycle;Max_cycle;Signal;HPM_P1;HPM_P2
2023/04/03 00:00:12;;;;;;;;;29.00;28.00;;;;;9.41;59.67;102513.13;1962093;28;3591863;-81
2023/04/03 00:01:23;;;;;;;;;28.00;26.00;;;;;9.42;60.13;102514.88;1946983;28;2850207;-80
2023/04/03 00:02:35;;;;;;;;;28.20;25.40;;;;;9.42;60.13;102507.00;1960234;28;3579354;-80
2023/04/03 00:03:47;;;;;;;;;25.00;25.00;;;;;9.43;59.84;102512.25;1977480;28;3581469;-81
2023/04/03 00:04:59;;;;;;;;;24.60;22.80;;;;;9.46;59.85;102519.25;1986896;28;3578333;-81
2023/04/03 00:06:12;;;;;;;;;24.60;24.40;;;;;9.48;60.06;102514.03;1975080;28;3574183;-81
2023/04/03 00:07:23;;;;;;;;;28.33;24.67;;;;;9.49;60.19;102521.88;1959522;28;3578379;-81
2023/04/03 00:08:35;;;;;;;;;33.00;27.00;;;;;9.51;59.81;102511.38;1983865;28;3600227;-81
2023/04/03 00:09:47;;;;;;;;;28.60;25.00;;;;;9.51;59.64;102516.63;1958430;28;3603307;-81
2023/04/03 00:10:59;;;;;;;;;29.33;26.33;;;;;9.51;59.76;102516.63;1953156;28;3600240;-80
2023/04/03 00:12:11;;;;;;;;;29.00;25.67;;;;;9.51;59.43;102511.38;1970857;28;3574210;-80
2023/04/03 00:13:23;;;;;;;;;26.67;25.67;;;;;9.50;60.09;102510.53;1970056;28;3585672;-80
2023/04/03 00:14:35;;;;;;;;;33.60;26.60;;;;;9.51;59.46;102514.88;1971303;28;3602303;-81
2023/04/03 00:15:47;;;;;;;;;31.67;28.00;;;;;9.52;59.79;102507.88;1984719;28;3598137;-80
2023/04/03 00:16:58;;;;;;;;;31.20;27.60;;;;;9.54;59.97;102508.75;1964193;28;3600232;-81
2023/04/03 00:18:10;;;;;;;;;26.40;26.40;;;;;9.54;59.71;102509.63;1965702;28;3583531;-80
2023/04/03 00:19:22;;;;;;;;;26.80;22.00;;;;;9.53;59.69;102510.50;1988935;28;3573135;-81
2023/04/03 00:20:34;;;;;;;;;30.40;25.20;;;;;9.55;59.53;102514.03;1989137;28;3587696;-81
2023/04/03 00:21:46;;;;;;;;;28.00;21.00;;;;;9.55;59.42;102514.03;1977947;28;3600184;-80
2023/04/03 00:23:00;;;;;;;;;26.40;25.60;;;;;9.56;59.43;102517.50;1958996;28;3598110;-80
2023/04/03 00:24:11;;;;;;;;;35.50;28.50;;;;;9.55;59.47;102514.03;1947592;28;2858570;-81
2023/04/03 00:25:23;;;;;;;;;27.60;25.00;;;;;9.56;59.46;102507.88;1963582;28;3587708;-81
2023/04/03 00:26:35;;;;;;;;;25.33;23.00;;;;;9.56;59.58;102518.38;1985255;28;3581478;-80
2023/04/03 00:27:47;;;;;;;;;33.80;28.00;;;;;9.57;59.64;102519.25;1990412;28;3622047;-81
2023/04/03 00:28:59;;;;;;;;;32.33;27.33;;;;;9.55;59.75;102513.16;1958969;28;3605806;-80
2023/04/03 00:30:14;;;;;;;;;34.80;29.20;;;;;9.53;59.73;102513.13;1961660;28;3608564;-81
2023/04/03 00:31:26;;;;;;;;;31.33;29.67;;;;;9.53;59.60;102523.63;1943125;28;3597066;-81
2023/04/03 00:32:38;;;;;;;;;35.00;26.67;;;;;9.52;59.66;102516.66;1959788;28;3620011;-81
2023/04/03 00:33:50;;;;;;;;;33.40;28.40;;;;;9.52;59.62;102511.38;1954538;28;3596605;-80
2023/04/03 00:35:02;;;;;;;;;34.20;31.00;;;;;9.51;59.26;102514.88;1959599;28;3576258;-80
2023/04/03 00:36:14;;;;;;;;;32.20;28.40;;;;;9.49;59.13;102515.75;1955576;28;3604376;-79
2023/04/03 00:37:26;;;;;;;;;32.60;29.80;;;;;9.47;59.50;102510.50;1961116;28;3604352;-81
2023/04/03 00:38:38;;;;;;;;;32.20;26.20;;;;;9.45;59.21;102507.91;1965303;28;3592916;-80
2023/04/03 00:39:50;;;;;;;;;31.80;26.00;;;;;9.42;59.30;102505.25;1966755;28;3600207;-80
2023/04/03 00:41:02;;;;;;;;;26.00;20.20;;;;;9.41;59.33;102505.25;1968150;28;3582481;-80
2023/04/03 00:42:14;;;;;;;;;33.20;26.80;;;;;9.40;59.51;102508.75;1972997;28;3602279;-80
2023/04/03 00:43:27;;;;;;;;;31.60;25.40;;;;;9.38;59.36;102507.88;1956531;28;3585649;-80
2023/04/03 00:44:37;;;;;;;;;30.00;28.00;;;;;9.36;59.29;102505.25;1946629;28;2860630;-80
2023/04/03 00:45:52;;;;;;;;;27.80;24.80;;;;;9.34;59.60;102501.75;1968574;28;3589784;-80
2023/04/03 00:47:06;;;;;;;;;31.50;30.50;;;;;9.33;59.76;102506.13;1943778;28;2847125;-80
2023/04/03 00:48:21;;;;;;;;;32.50;29.00;;;;;9.33;59.54;102502.63;1937139;28;2866896;-80
2023/04/03 00:49:32;;;;;;;;;30.00;27.50;;;;;9.31;59.63;102499.16;1946251;28;2856846;-80
2023/04/03 00:50:45;;;;;;;;;35.60;30.40;;;;;9.29;59.62;102499.13;1957578;28;3588727;-81
2023/04/03 00:51:57;;;;;;;;;31.00;28.50;;;;;9.30;59.52;102508.75;1939515;28;2855423;-80
2023/04/03 00:53:12;;;;;;;;;36.50;32.50;;;;;9.30;59.58;102510.50;1941104;28;2856937;-80
2023/04/03 00:54:23;;;;;;;;;37.50;33.00;;;;;9.28;59.63;102501.75;1944884;28;2831481;-80
2023/04/03 00:55:36;;;;;;;;;31.33;29.67;;;;;9.25;59.69;102509.63;1962028;28;3599184;-80
2023/04/03 00:56:50;;;;;;;;;25.00;24.00;;;;;9.22;60.08;102505.25;1943340;28;3564804;-80
2023/04/03 00:58:02;;;;;;;;;36.00;30.00;;;;;9.19;60.04;102500.84;1961655;28;2869022;-80
2023/04/03 00:59:18;;;;;;;;;39.00;33.00;;;;;9.20;59.82;102501.75;1946535;28;2839842;-80
2023/04/03 01:00:28;;;;;;;;;34.00;31.00;;;;;9.20;59.98;102501.75;1968348;28;2873157;-80
2023/04/03 01:01:41;;;;;;;;;41.40;32.40;;;;;9.21;60.28;102506.13;1954997;28;3578326;-80
2023/04/03 01:02:52;;;;;;;;;39.50;33.00;;;;;9.20;60.09;102494.75;1964110;28;2850628;-80
2023/04/03 01:04:05;;;;;;;;;32.20;29.80;;;;;9.21;60.04;102486.00;1955647;28;3597071;-80
2023/04/03 01:05:17;;;;;;;;;32.50;29.50;;;;;9.21;60.22;102491.25;1947687;28;2864800;-80
2023/04/03 01:06:32;;;;;;;;;36.00;31.00;;;;;9.19;59.97;102490.38;1947699;28;2858547;-80
2023/04/03 01:07:44;;;;;;;;;34.00;30.50;;;;;9.20;60.23;102489.50;1946319;28;2851320;-81
2023/04/03 01:08:55;;;;;;;;;33.50;30.00;;;;;9.21;59.95;102488.63;1945627;28;2858617;-80
2023/04/03 01:10:09;;;;;;;;;43.00;33.00;;;;;9.24;59.88;102485.13;1946702;28;2853391;-80
2023/04/03 01:11:20;;;;;;;;;38.00;32.00;;;;;9.25;60.39;102488.63;1944401;28;2853398;-81
2023/04/03 01:12:35;;;;;;;;;38.00;31.00;;;;;9.27;59.93;102492.13;1945420;28;2864202;-80
2023/04/03 01:13:46;;;;;;;;;38.50;33.50;;;;;9.28;60.16;102486.00;1947234;28;2867965;-80
2023/04/03 01:15:00;;;;;;;;;37.60;30.80;;;;;9.28;60.26;102488.63;1961232;28;3614152;-81
2023/04/03 01:16:11;;;;;;;;;39.50;32.00;;;;;9.28;59.87;102486.00;1946687;28;2855953;-80
2023/04/03 01:17:36;;;;;;;;;37.20;31.60;;;;;9.30;59.86;102484.25;1964483;28;3588785;-80
2023/04/03 01:18:47;;;;;;;;;39.00;31.50;;;;;9.29;60.05;102493.88;1945606;28;2866923;-80
2023/04/03 01:20:11;;;;;;;;;37.40;31.60;;;;;9.31;59.89;102493.91;1951962;28;3605405;-80
2023/04/03 01:21:47;;;;;;;;;41.00;34.00;;;;;9.32;59.83;102493.00;1969595;28;2849229;-80
2023/04/03 01:23:01;;;;;;;;;39.00;32.00;;;;;9.31;60.03;102488.66;1945100;28;2839845;-80
2023/04/03 01:24:33;;;;;;;;;38.50;30.50;;;;;9.31;60.10;102486.88;1966341;28;2854447;-80
2023/04/03 01:25:50;;;;;;;;;36.00;33.00;;;;;9.31;59.88;102480.78;1944174;28;2838792;-80
2023/04/03 01:27:03;;;;;;;;;29.33;25.67;;;;;9.31;59.90;102481.63;1952197;28;3588790;-81
2023/04/03 01:28:28;;;;;;;;;35.00;32.00;;;;;9.31;59.91;102486.88;1947999;28;2846094;-80
2023/04/03 01:29:40;;;;;;;;;38.50;32.50;;;;;9.31;60.11;102486.03;1946119;28;2838828;-80
2023/04/03 01:31:02;;;;;;;;;34.00;31.00;;;;;9.30;60.03;102479.91;1968882;28;2861739;-80
2023/04/03 01:32:14;;;;;;;;;29.00;25.67;;;;;9.31;60.19;102483.41;1943991;28;3588798;-80
2023/04/03 01:33:25;;;;;;;;;38.50;31.00;;;;;9.32;59.84;102487.75;1969239;28;2855954;-80
2023/04/03 01:34:37;;;;;;;;;32.80;28.80;;;;;9.33;59.69;102479.03;1957703;28;3592904;-81
2023/04/03 01:35:49;;;;;;;;;37.80;31.00;;;;;9.33;60.13;102481.66;1979383;28;3616219;-80
2023/04/03 01:37:01;;;;;;;;;33.00;28.60;;;;;9.35;59.75;102477.28;1956246;28;3589923;-80
2023/04/03 01:38:12;;;;;;;;;31.40;29.00;;;;;9.34;59.76;102481.63;1972186;28;3597090;-80
2023/04/03 01:39:25;;;;;;;;;27.33;27.33;;;;;9.33;60.02;102476.41;1967559;28;3599194;-81
2023/04/03 01:40:37;;;;;;;;;33.00;27.67;;;;;9.33;59.86;102473.78;1975827;28;3606508;-81
2023/04/03 01:41:49;;;;;;;;;31.67;29.67;;;;;9.32;59.96;102472.91;1939610;28;3600219;-81
2023/04/03 01:43:01;;;;;;;;;31.20;29.20;;;;;9.32;59.84;102475.53;1961003;28;3595042;-80
2023/04/03 01:44:13;;;;;;;;;28.60;27.60;;;;;9.31;59.70;102479.00;1961363;28;3602300;-80
2023/04/03 01:45:25;;;;;;;;;32.20;30.80;;;;;9.31;59.56;102486.03;1954476;28;3597071;-80
2023/04/03 01:46:37;;;;;;;;;39.40;30.40;;;;;9.29;59.78;102483.38;1957203;28;3612691;-80
2023/04/03 01:47:49;;;;;;;;;31.33;30.00;;;;;9.29;60.12;102483.38;1952040;28;3585652;-80
2023/04/03 01:49:01;;;;;;;;;29.00;24.60;;;;;9.26;59.89;102483.38;1986934;28;3600610;-80
2023/04/03 01:50:12;;;;;;;;;32.00;29.60;;;;;9.25;60.20;102489.50;1954017;28;3576254;-80
2023/04/03 01:51:25;;;;;;;;;32.33;28.00;;;;;9.26;60.40;102485.13;1985320;28;3608557;-81
2023/04/03 01:52:37;;;;;;;;;32.00;30.20;;;;;9.27;60.24;102486.88;1962208;28;3600188;-80
2023/04/03 01:53:48;;;;;;;;;33.60;31.40;;;;;9.28;60.94;102484.28;1959834;28;3562690;-80
2023/04/03 01:55:00;;;;;;;;;28.00;28.00;;;;;9.29;60.31;102487.75;1985444;28;3595032;-81
2023/04/03 01:56:12;;;;;;;;;36.80;31.60;;;;;9.28;60.76;102492.16;1989655;28;3604367;-80
2023/04/03 01:57:25;;;;;;;;;38.60;33.60;;;;;9.28;60.56;102486.91;1964204;28;3593980;-80
2023/04/03 01:58:36;;;;;;;;;29.40;29.40;;;;;9.28;60.93;102486.00;1952311;28;3592942;-81
2023/04/03 01:59:48;;;;;;;;;33.40;29.40;;;;;9.26;60.41;102483.38;1965447;28;3600197;-81
2023/04/03 02:01:01;;;;;;;;;37.40;31.00;;;;;9.28;61.04;102480.75;1967577;28;3589184;-80
2023/04/03 02:02:12;;;;;;;;;36.50;31.00;;;;;9.26;60.81;102488.63;1939996;28;2863776;-81
2023/04/03 02:03:23;;;;;;;;;38.00;32.67;;;;;9.27;60.74;102473.75;1943442;28;3581507;-80
2023/04/03 02:04:35;;;;;;;;;35.00;28.33;;;;;9.25;60.55;102480.75;1984570;28;3611697;-80
2023/04/03 02:05:46;;;;;;;;;24.50;20.00;;;;;9.23;61.15;102481.63;1989183;28;2823518;-80
2023/04/03 02:06:58;;;;;;;;;38.40;31.60;;;;;9.21;61.18;102488.63;1970966;28;3591855;-80
2023/04/03 02:08:11;;;;;;;;;41.20;30.80;;;;;9.19;61.12;102486.84;1988873;28;3608904;-81
2023/04/03 02:09:22;;;;;;;;;41.40;32.80;;;;;9.16;61.11;102482.47;1957251;28;3615185;-81
2023/04/03 02:10:34;;;;;;;;;42.00;33.00;;;;;9.15;61.47;102483.38;1966548;28;3611693;-80
2023/04/03 02:11:46;;;;;;;;;40.20;33.60;;;;;9.14;61.35;102485.97;1966562;28;3597075;-80
2023/04/03 02:12:58;;;;;;;;;34.80;31.00;;;;;9.14;61.22;102485.97;1960187;28;3575193;-80
2023/04/03 02:14:10;;;;;;;;;37.80;31.20;;;;;9.11;61.24;102492.13;1989454;28;3581813;-80
2023/04/03 02:15:22;;;;;;;;;45.60;35.20;;;;;9.09;61.53;102489.47;1965651;28;3601253;-80
2023/04/03 02:16:34;;;;;;;;;39.80;32.00;;;;;9.05;61.48;102479.88;1965104;28;3599182;-80
2023/04/03 02:17:46;;;;;;;;;35.00;31.00;;;;;9.05;61.23;102482.50;1965399;28;3602275;-80
2023/04/03 02:18:58;;;;;;;;;40.20;32.40;;;;;9.04;61.65;102488.59;1967178;28;3599154;-80
2023/04/03 02:20:11;;;;;;;;;36.00;33.00;;;;;9.05;61.83;102492.09;1966453;28;3581450;-80
2023/04/03 02:21:21;;;;;;;;;37.50;32.00;;;;;9.06;61.73;102496.47;1970924;28;2859632;-81
2023/04/03 02:22:33;;;;;;;;;40.40;33.40;;;;;9.07;61.10;102482.47;1962338;28;3583549;-81
2023/04/03 02:23:45;;;;;;;;;36.00;31.40;;;;;9.06;61.50;102493.84;1986135;28;3584587;-81
2023/04/03 02:24:57;;;;;;;;;40.20;32.00;;;;;9.04;61.11;102490.38;1966003;28;3573107;-80
2023/04/03 02:26:13;;;;;;;;;43.60;34.60;;;;;9.04;61.40;102491.22;1990444;28;3615132;-80
2023/04/03 02:27:23;;;;;;;;;34.50;31.00;;;;;9.04;61.28;102493.84;1948165;28;2836723;-80
2023/04/03 02:28:36;;;;;;;;;35.60;31.20;;;;;9.04;61.28;102495.59;1966544;28;3587702;-80
2023/04/03 02:29:46;;;;;;;;;49.00;35.00;;;;;9.04;61.04;102491.22;1947904;28;2865835;-81
2023/04/03 02:30:58;;;;;;;;;38.80;34.60;;;;;9.04;61.83;102491.22;1966270;28;3585636;-80
2023/04/03 02:32:10;;;;;;;;;39.80;32.20;;;;;9.05;61.59;102490.34;1989298;28;3600253;-80
2023/04/03 02:33:22;;;;;;;;;32.40;30.40;;;;;9.04;61.15;102500.84;1966768;28;3594045;-80
2023/04/03 02:34:34;;;;;;;;;38.60;29.40;;;;;9.04;61.20;102493.00;1966129;28;3632518;-80
2023/04/03 02:35:52;;;;;;;;;37.80;30.60;;;;;9.05;61.39;102502.59;1964287;28;3618976;-81
2023/04/03 02:37:03;;;;;;;;;31.00;27.00;;;;;9.04;61.00;102490.38;1948013;28;2858607;-80
2023/04/03 02:38:15;;;;;;;;;32.67;29.00;;;;;9.06;61.09;102499.09;1961415;28;3612734;-81
2023/04/03 02:39:27;;;;;;;;;24.67;23.67;;;;;9.05;61.36;102497.34;1971843;28;3576757;-80
2023/04/03 02:40:39;;;;;;;;;33.40;29.20;;;;;9.06;61.27;102497.34;1993580;28;3614800;-80
2023/04/03 02:41:51;;;;;;;;;30.40;27.60;;;;;9.09;60.98;102501.72;1962109;28;3566883;-80
2023/04/03 02:43:03;;;;;;;;;28.20;28.00;;;;;9.07;60.57;102493.84;1982550;28;3598149;-80
2023/04/03 02:44:15;;;;;;;;;32.00;27.80;;;;;9.07;60.79;102498.22;1952694;28;3596097;-81
2023/04/03 02:45:27;;;;;;;;;33.00;30.33;;;;;9.04;60.64;102503.47;1956608;28;3608556;-81
2023/04/03 02:46:39;;;;;;;;;34.00;29.33;;;;;9.01;60.53;102491.22;1961070;28;3604410;-80
2023/04/03 02:47:51;;;;;;;;;30.00;27.00;;;;;9.00;60.74;102498.22;1949417;28;3600189;-81
2023/04/03 02:49:03;;;;;;;;;32.20;27.00;;;;;8.99;60.52;102499.06;1959067;28;3598117;-80
2023/04/03 02:50:14;;;;;;;;;28.33;27.33;;;;;8.98;60.44;102494.72;1948255;28;3585678;-80
2023/04/03 02:51:26;;;;;;;;;32.60;28.80;;;;;8.98;60.18;102494.72;1987437;28;3602279;-80
2023/04/03 02:52:38;;;;;;;;;28.33;25.00;;;;;8.98;60.79;102494.72;1958463;28;3593309;-80
2023/04/03 02:53:50;;;;;;;;;27.40;26.60;;;;;8.97;60.44;102492.06;1989404;28;3596035;-81
2023/04/03 02:55:03;;;;;;;;;22.20;21.60;;;;;8.95;60.38;102489.47;1966042;28;3578338;-80
2023/04/03 02:56:14;;;;;;;;;29.00;24.67;;;;;8.94;60.28;102487.69;1967437;28;3589828;-80
2023/04/03 02:57:26;;;;;;;;;25.00;22.33;;;;;8.94;60.26;102495.56;1979019;28;3583980;-80
2023/04/03 02:58:38;;;;;;;;;27.00;24.40;;;;;8.93;60.37;102491.22;1990215;28;3578321;-80
2023/04/03 02:59:50;;;;;;;;;29.20;25.80;;;;;8.92;60.21;102489.44;1989681;28;3602268;-79
2023/04/03 03:01:03;;;;;;;;;28.00;26.33;;;;;8.91;60.14;102492.97;1950140;28;3591926;-80
2023/04/03 03:02:14;;;;;;;;;27.00;20.00;;;;;8.91;59.98;102492.06;1938477;28;3589835;-80
2023/04/03 03:03:26;;;;;;;;;26.60;23.80;;;;;8.91;59.88;102486.84;1983483;28;3582488;-80
2023/04/03 03:04:38;;;;;;;;;29.67;22.67;;;;;8.92;60.06;102486.81;1979585;28;3577324;-80
2023/04/03 03:05:50;;;;;;;;;25.40;21.00;;;;;8.93;59.77;102488.59;1987967;28;3579391;-80
2023/04/03 03:07:02;;;;;;;;;25.60;25.20;;;;;8.93;59.98;102485.09;1990969;28;3570052;-80
2023/04/03 03:08:14;;;;;;;;;30.00;24.00;;;;;8.93;60.31;102491.22;1973120;28;3585649;-80
2023/04/03 03:09:26;;;;;;;;;32.67;26.67;;;;;8.95;59.70;102484.22;1972231;28;3591942;-80
2023/04/03 03:10:37;;;;;;;;;27.67;22.67;;;;;8.96;60.15;102485.94;1973966;28;3598217;-80
2023/04/03 03:11:49;;;;;;;;;30.60;24.20;;;;;8.98;60.10;102492.09;1989640;28;3601233;-80
2023/04/03 03:13:01;;;;;;;;;26.33;23.00;;;;;8.98;59.81;102489.47;1962840;28;3568334;-80
2023/04/03 03:14:13;;;;;;;;;24.40;22.40;;;;;8.99;60.16;102485.97;1989963;28;3582535;-80
2023/04/03 03:15:25;;;;;;;;;29.00;24.80;;;;;9.00;59.55;102486.84;1989401;28;3575284;-80
2023/04/03 03:16:37;;;;;;;;;27.00;22.00;;;;;8.99;59.71;102485.97;1985651;28;3583571;-80
2023/04/03 03:17:49;;;;;;;;;30.67;24.00;;;;;8.99;59.52;102480.72;1985263;28;3599182;-80
2023/04/03 03:19:01;;;;;;;;;24.33;21.67;;;;;8.99;59.77;102480.72;1984987;28;3567934;-80
2023/04/03 03:20:16;;;;;;;;;26.00;24.00;;;;;8.98;59.82;102484.22;1989221;28;3569003;-80
2023/04/03 03:21:26;;;;;;;;;25.50;23.00;;;;;8.98;59.59;102492.09;1969237;28;2829386;-80
2023/04/03 03:22:38;;;;;;;;;25.67;21.33;;;;;8.97;59.37;102486.84;1961248;28;3583550;-80
2023/04/03 03:23:50;;;;;;;;;25.80;24.00;;;;;8.96;59.62;102485.94;1988511;28;3575184;-80
2023/04/03 03:25:03;;;;;;;;;25.20;21.40;;;;;8.94;59.56;102477.22;1986641;28;3581447;-80
2023/04/03 03:26:15;;;;;;;;;29.00;23.00;;;;;8.94;59.70;102490.31;1966967;28;3587204;-80
2023/04/03 03:27:26;;;;;;;;;23.00;20.67;;;;;8.94;59.70;102481.59;1970340;28;3568991;-80
2023/04/03 03:28:39;;;;;;;;;25.33;21.00;;;;;8.93;59.69;102485.09;1977862;28;2833678;-80
2023/04/03 03:29:50;;;;;;;;;24.33;23.67;;;;;8.93;59.71;102485.97;1968483;28;3577304;-80
2023/04/03 03:31:03;;;;;;;;;27.67;22.00;;;;;8.92;59.62;102484.19;1982157;28;3579404;-80
2023/04/03 03:32:14;;;;;;;;;24.33;22.33;;;;;8.91;58.95;102489.44;1969056;28;3574199;-80
2023/04/03 03:33:26;;;;;;;;;24.00;20.67;;;;;8.89;59.51;102485.06;1978915;28;3570021;-80
2023/04/03 03:34:37;;;;;;;;;17.67;14.00;;;;;8.88;59.21;102485.06;1975986;28;3551287;-80
2023/04/03 03:35:49;;;;;;;;;30.33;21.33;;;;;8.88;59.48;102485.97;1961702;28;3586714;-80
2023/04/03 03:37:01;;;;;;;;;20.33;19.33;;;;;8.89;59.01;102482.44;1975531;28;3562753;-80
2023/04/03 03:38:13;;;;;;;;;19.33;17.67;;;;;8.89;58.98;102485.06;1969042;28;3567432;-80
2023/04/03 03:39:25;;;;;;;;;21.00;19.00;;;;;8.89;59.14;102486.81;1977901;28;3577749;-80
2023/04/03 03:40:37;;;;;;;;;23.67;22.33;;;;;8.89;59.10;102484.19;1981068;28;3565850;-81
2023/04/03 03:41:49;;;;;;;;;19.67;18.33;;;;;8.89;59.56;102479.81;1968227;28;3568983;-80
2023/04/03 03:43:00;;;;;;;;;29.00;22.00;;;;;8.91;59.51;102487.72;1965670;28;3597123;-80
2023/04/03 03:44:12;;;;;;;;;22.67;20.67;;;;;8.92;58.90;102484.19;1976624;28;3577380;-81
2023/04/03 03:45:25;;;;;;;;;26.40;22.40;;;;;8.94;58.96;102481.59;1981136;28;3587744;-80
2023/04/03 03:46:36;;;;;;;;;24.00;19.33;;;;;8.94;59.05;102482.44;1953514;28;3585692;-80
2023/04/03 03:47:48;;;;;;;;;26.33;20.00;;;;;8.95;59.22;102478.97;1982267;28;3583562;-80
2023/04/03 03:49:00;;;;;;;;;25.00;20.00;;;;;8.95;58.88;102475.47;1976812;28;3575236;-80
2023/04/03 03:50:12;;;;;;;;;21.00;20.00;;;;;8.96;59.17;102480.69;1976026;28;3573235;-80
2023/04/03 03:51:24;;;;;;;;;27.20;21.20;;;;;8.97;58.95;102485.09;1988161;28;3581829;-81
2023/04/03 03:52:36;;;;;;;;;22.60;21.60;;;;;8.97;59.00;102471.97;1986231;28;3583574;-80
2023/04/03 03:53:48;;;;;;;;;22.00;20.00;;;;;8.98;58.93;102481.59;1983841;28;3578346;-80
2023/04/03 03:55:00;;;;;;;;;22.60;20.00;;;;;8.98;59.04;102481.59;1993426;28;1841976;-80
2023/04/03 03:56:11;;;;;;;;;22.33;22.00;;;;;8.98;58.64;102478.97;1960541;28;3569011;-80
2023/04/03 03:57:23;;;;;;;;;24.00;22.33;;;;;8.97;58.30;102471.09;1977739;28;3572116;-80
2023/04/03 03:58:35;;;;;;;;;21.00;17.60;;;;;8.96;58.79;102480.69;1994210;28;1846171;-80
2023/04/03 03:59:48;;;;;;;;;25.00;20.67;;;;;8.95;58.58;102484.22;1968665;28;3570075;-80
2023/04/03 04:01:06;;;;;;;;;19.67;19.33;;;;;8.94;58.85;102481.59;1968277;28;3568979;-80
2023/04/03 04:02:20;;;;;;;;;13.83;13.50;;;;;8.93;58.66;102480.72;1991091;28;1829469;-80
2023/04/03 04:03:32;;;;;;;;;21.00;20.67;;;;;8.93;58.59;102483.34;1945802;28;3577313;-80
2023/04/03 04:04:42;;;;;;;;;24.50;22.50;;;;;8.93;58.19;102479.84;1969523;28;2836335;-80
2023/04/03 04:05:54;;;;;;;;;24.20;20.80;;;;;8.89;57.95;102481.56;1962709;28;3579375;-80
2023/04/03 04:07:06;;;;;;;;;22.40;18.80;;;;;8.86;58.05;102481.59;1975306;28;3573149;-80
2023/04/03 04:08:18;;;;;;;;;22.67;20.33;;;;;8.84;58.11;102483.31;1975487;28;2831586;-80
2023/04/03 04:09:29;;;;;;;;;22.67;19.00;;;;;8.83;58.71;102478.94;1967055;28;3565870;-80
2023/04/03 04:10:42;;;;;;;;;22.17;18.83;;;;;8.82;58.01;102483.31;1995495;28;2833923;-80
2023/04/03 04:11:54;;;;;;;;;27.33;21.00;;;;;8.82;58.09;102477.19;1954876;28;3584694;-80
2023/04/03 04:13:06;;;;;;;;;26.00;20.67;;;;;8.80;58.14;102479.81;1969943;28;3583586;-80
2023/04/03 04:14:20;;;;;;;;;24.00;18.00;;;;;8.80;58.17;102479.81;1976824;28;3585658;-80
2023/04/03 04:15:30;;;;;;;;;23.00;22.50;;;;;8.77;58.10;102480.66;1961000;28;2839830;-79
2023/04/03 04:16:42;;;;;;;;;22.00;20.00;;;;;8.76;58.73;102478.94;1974448;28;3579411;-80
2023/04/03 04:17:54;;;;;;;;;23.33;22.00;;;;;8.76;58.31;102468.44;1983622;28;3587831;-80
2023/04/03 04:19:06;;;;;;;;;22.80;20.40;;;;;8.78;58.65;102478.94;1968185;28;3568971;-80
2023/04/03 04:20:19;;;;;;;;;19.33;17.00;;;;;8.77;58.39;102477.16;1993982;28;2830432;-80
2023/04/03 04:21:32;;;;;;;;;21.50;20.00;;;;;8.76;58.58;102468.44;1964157;28;2841885;-80
2023/04/03 04:22:44;;;;;;;;;25.00;22.60;;;;;8.76;57.74;102475.44;1958760;28;3577329;-81
2023/04/03 04:23:56;;;;;;;;;20.60;20.00;;;;;8.76;58.11;102478.94;1982673;28;3575209;-80
2023/04/03 04:25:08;;;;;;;;;27.00;21.33;;;;;8.76;58.51;102472.81;1976434;28;3578365;-80
2023/04/03 04:26:20;;;;;;;;;23.33;22.00;;;;;8.77;58.20;102479.78;1969514;28;3576282;-80
2023/04/03 04:27:31;;;;;;;;;19.80;18.20;;;;;8.78;57.93;102477.19;1967360;28;3563762;-80
2023/04/03 04:28:43;;;;;;;;;20.00;17.67;;;;;8.76;58.10;102476.31;1977777;28;2827410;-80
2023/04/03 04:29:54;;;;;;;;;23.33;20.00;;;;;8.73;57.81;102471.06;1960762;28;3581482;-80
2023/04/03 04:31:06;;;;;;;;;23.00;19.33;;;;;8.73;58.05;102475.41;1983673;28;3575264;-80
2023/04/03 04:32:18;;;;;;;;;20.67;20.67;;;;;8.73;58.10;102472.78;1983312;28;3575233;-80
2023/04/03 04:33:30;;;;;;;;;20.67;17.67;;;;;8.73;57.61;102471.06;1984192;28;3562748;-80
2023/04/03 04:34:42;;;;;;;;;24.33;21.67;;;;;8.74;58.35;102469.31;1978827;28;3578342;-80
2023/04/03 04:35:54;;;;;;;;;26.00;23.00;;;;;8.74;57.84;102467.53;1977039;28;3573185;-80
2023/04/03 04:37:06;;;;;;;;;19.33;18.33;;;;;8.74;57.92;102470.16;1975515;28;3563810;-80
2023/04/03 04:38:18;;;;;;;;;22.60;19.80;;;;;8.75;58.14;102473.66;1979908;28;3570059;-80
2023/04/03 04:39:30;;;;;;;;;22.00;19.80;;;;;8.75;57.59;102474.56;1982687;28;3565827;-80
2023/04/03 04:40:41;;;;;;;;;19.67;17.00;;;;;8.75;57.57;102477.19;1977537;28;3562729;-80
2023/04/03 04:41:53;;;;;;;;;25.00;21.00;;;;;8.76;57.95;102480.69;1974336;28;3574210;-80
2023/04/03 04:43:06;;;;;;;;;25.33;19.67;;;;;8.74;57.35;102478.03;1992325;28;2846182;-80
2023/04/03 04:44:18;;;;;;;;;25.00;22.67;;;;;8.73;57.63;102473.69;1955003;28;2825266;-80
2023/04/03 04:45:30;;;;;;;;;27.00;21.00;;;;;8.74;58.16;102480.66;1959661;28;3583656;-80
2023/04/03 04:46:42;;;;;;;;;22.67;19.67;;;;;8.76;57.64;102472.81;1979085;28;3582540;-80
2023/04/03 04:47:56;;;;;;;;;24.00;20.20;;;;;8.80;57.84;102473.69;1981789;28;3575220;-81
2023/04/03 04:49:08;;;;;;;;;20.33;17.67;;;;;8.79;57.40;102480.66;1960574;28;3562753;-80
2023/04/03 04:50:20;;;;;;;;;23.67;20.00;;;;;8.79;57.40;102478.03;1957656;28;3577356;-80
2023/04/03 04:51:31;;;;;;;;;22.00;18.00;;;;;8.79;57.26;102483.28;1977001;28;3565878;-81
2023/04/03 04:52:43;;;;;;;;;21.33;19.67;;;;;8.78;57.34;102485.06;1977107;28;3573176;-81
2023/04/03 04:53:55;;;;;;;;;20.67;20.33;;;;;8.77;56.77;102485.91;1976952;28;3577347;-80
2023/04/03 04:55:07;;;;;;;;;26.33;22.33;;;;;8.74;56.80;102485.91;1983507;28;3578401;-81
2023/04/03 04:56:19;;;;;;;;;23.20;19.80;;;;;8.73;56.77;102481.53;1980047;28;3572069;-80
2023/04/03 04:57:31;;;;;;;;;24.33;23.00;;;;;8.71;56.65;102482.41;1976067;28;3575241;-81
2023/04/03 04:58:43;;;;;;;;;21.67;18.67;;;;;8.69;56.93;102482.41;1972532;28;3571051;-81
2023/04/03 04:59:56;;;;;;;;;26.83;22.17;;;;;8.69;57.21;102471.03;1999885;28;2840916;-82
2023/04/03 05:01:10;;;;;;;;;26.17;21.83;;;;;8.69;56.90;102479.78;1975008;28;2842024;-81
2023/04/03 05:02:22;;;;;;;;;23.67;22.00;;;;;8.69;56.86;102476.28;1935693;28;3571074;-82
2023/04/03 05:03:33;;;;;;;;;17.00;15.33;;;;;8.71;56.88;102480.66;1990775;28;1843025;-82
2023/04/03 05:04:44;;;;;;;;;29.33;20.33;;;;;8.69;56.64;102474.56;1943975;28;3608639;-81
2023/04/03 05:05:57;;;;;;;;;26.67;22.00;;;;;8.70;56.57;102485.88;1960720;28;3592956;-81
2023/04/03 05:07:08;;;;;;;;;19.00;17.00;;;;;8.70;57.07;102483.25;1937199;28;2827404;-81
2023/04/03 05:08:19;;;;;;;;;21.50;19.00;;;;;8.71;57.01;102488.53;1962541;28;2835675;-82
2023/04/03 05:09:30;;;;;;;;;8.67;8.33;;;;;8.71;57.07;102485.03;1988114;28;3476295;-83
2023/04/03 05:10:42;;;;;;;;;26.00;22.67;;;;;8.73;56.88;102484.16;1978093;28;3563806;-82
2023/04/03 05:11:54;;;;;;;;;24.67;20.00;;;;;8.75;56.53;102487.66;1961484;28;3575304;-82
2023/04/03 05:13:05;;;;;;;;;23.00;19.33;;;;;8.76;56.98;102488.53;1975969;28;3568990;-81
2023/04/03 05:14:17;;;;;;;;;20.67;20.00;;;;;8.77;56.91;102485.03;1984585;28;3575265;-81
2023/04/03 05:15:29;;;;;;;;;26.20;21.40;;;;;8.80;57.17;102489.41;1986882;28;3583527;-81
2023/04/03 05:16:41;;;;;;;;;25.33;23.00;;;;;8.80;56.91;102486.78;1984283;28;3585666;-81
2023/04/03 05:17:53;;;;;;;;;22.33;20.67;;;;;8.81;56.71;102485.94;1984637;28;3573164;-81
2023/04/03 05:19:05;;;;;;;;;26.33;20.67;;;;;8.82;56.35;102487.66;1973822;28;3587769;-82
2023/04/03 05:20:17;;;;;;;;;22.33;20.67;;;;;8.82;56.66;102487.66;1975474;28;3560757;-82
2023/04/03 05:21:31;;;;;;;;;26.20;23.80;;;;;8.84;56.23;102485.94;1985828;28;3565821;-82
2023/04/03 05:22:43;;;;;;;;;25.00;21.33;;;;;8.85;56.58;102490.31;1967929;28;3579391;-81
2023/04/03 05:23:55;;;;;;;;;24.67;19.33;;;;;8.87;56.55;102488.56;1983932;28;3582562;-82
2023/04/03 05:25:07;;;;;;;;;28.20;23.20;;;;;8.88;55.84;102490.31;1984944;28;3583542;-82